Time;durP1;ratioP1;P1;durP2;ratioP2;P2;SDS_P1;SDS_P2;PMS_P1;PMS_P2;Temp;Humidity;BMP_temperature;BMP_pressure;BME280_temperature;BME280_humidity;BME280_pressure;Samples;Min_cycle;Max_cycle;Signal;HPM_P1;HPM_P2
2023/09/30 00:02:09;;;;;;;3.92;2.28;;;17.60;83.80;;;19.23;59.26;98487.19;5024533;28;20041;-61
2023/09/30 00:04:36;;;;;;;5.00;2.50;;;17.60;83.30;;;19.22;59.57;98476.59;5024713;28;20049;-61
2023/09/30 00:07:05;;;;;;;5.07;2.38;;;17.60;83.90;;;19.22;59.42;98473.91;5021849;28;20045;-61
2023/09/30 00:09:32;;;;;;;5.45;2.72;;;17.60;83.90;;;19.23;59.45;98480.94;5021291;28;20042;-61
2023/09/30 00:12:00;;;;;;;5.13;2.42;;;17.60;84.00;;;19.27;59.21;98480.38;5022623;28;20057;-61
2023/09/30 00:14:29;;;;;;;3.58;2.08;;;17.60;83.70;;;19.33;59.19;98469.78;5024266;28;20041;-61
2023/09/30 00:16:57;;;;;;;4.63;2.80;;;17.70;83.00;;;19.36;58.77;98472.13;5022769;28;20436;-61
2023/09/30 00:19:24;;;;;;;5.85;3.25;;;17.70;82.40;;;19.35;58.63;98473.13;5021132;28;20046;-61
2023/09/30 00:21:52;;;;;;;3.95;2.40;;;17.70;82.40;;;19.36;58.55;98478.34;5021730;28;20489;-61
2023/09/30 00:24:20;;;;;;;4.65;2.15;;;17.70;82.40;;;19.35;58.36;98468.59;5024280;28;20444;-61
2023/09/30 00:26:49;;;;;;;4.60;2.67;;;17.70;81.70;;;19.29;58.53;98472.09;5023946;28;20049;-61
2023/09/30 00:29:17;;;;;;;3.63;2.30;;;17.60;81.70;;;19.27;58.47;98472.28;5013403;28;20385;-61
2023/09/30 00:31:45;;;;;;;4.55;2.45;;;17.60;81.70;;;19.25;58.44;98476.19;5007219;28;20050;-61
2023/09/30 00:34:13;;;;;;;3.17;2.72;;;17.50;81.90;;;19.23;58.48;98478.25;5011675;28;20485;-61
2023/09/30 00:36:40;;;;;;;3.88;2.20;;;17.50;81.90;;;19.23;58.57;98472.84;5021659;28;20045;-61
2023/09/30 00:39:09;;;;;;;3.75;2.22;;;17.50;81.80;;;19.23;58.49;98476.41;5021228;28;20417;-61
2023/09/30 00:41:39;;;;;;;4.20;2.38;;;17.50;81.90;;;19.17;58.58;98473.63;5020882;28;20053;-61
2023/09/30 00:44:08;;;;;;;3.80;2.45;;;17.50;82.50;;;19.18;58.66;98481.53;4994662;28;20056;-61
2023/09/30 00:46:40;;;;;;;3.65;2.88;;;17.50;82.30;;;19.13;58.34;98486.69;5020318;28;20466;-61
2023/09/30 00:49:10;;;;;;;3.70;2.35;;;17.40;82.50;;;19.13;58.51;98483.97;4994872;28;20049;-61
2023/09/30 00:51:39;;;;;;;2.60;2.13;;;17.40;82.30;;;19.10;58.73;98483.56;4989746;28;20057;-61
2023/09/30 00:54:08;;;;;;;5.38;2.80;;;17.30;82.40;;;19.04;58.70;98487.88;4996449;28;20072;-61
2023/09/30 00:56:48;;;;;;;3.28;2.03;;;17.30;82.90;;;19.03;58.81;98489.72;5006196;28;20109;-61
2023/09/30 00:59:16;;;;;;;3.90;2.20;;;17.40;82.60;;;19.06;58.84;98493.91;5021673;28;20049;-61
2023/09/30 01:01:46;;;;;;;3.00;2.25;;;17.30;82.40;;;19.09;58.61;98480.00;5005392;28;20041;-61
2023/09/30 01:04:15;;;;;;;2.45;1.90;;;17.40;81.90;;;19.11;58.36;98490.63;4986876;28;20425;-61
2023/09/30 01:06:43;;;;;;;4.03;2.25;;;17.40;81.70;;;19.12;58.41;98486.91;5019797;28;20045;-61
2023/09/30 01:09:12;;;;;;;4.50;2.55;;;17.40;81.40;;;19.12;58.32;98486.91;5012183;28;20049;-61
2023/09/30 01:11:40;;;;;;;4.03;2.58;;;17.40;81.60;;;19.10;58.11;98480.88;5013575;28;20046;-61
2023/09/30 01:14:32;;;;;;;4.38;2.42;;;17.30;81.70;;;19.02;58.21;98485.38;5020906;28;20053;-61
2023/09/30 01:16:59;;;;;;;4.80;2.53;;;17.30;82.20;;;19.01;58.27;98477.47;5003316;28;20068;-61
2023/09/30 01:19:28;;;;;;;5.47;2.92;;;17.20;82.40;;;18.99;58.50;98479.53;5013517;28;20049;-61
2023/09/30 01:21:59;;;;;;;4.43;3.17;;;17.20;82.30;;;18.98;58.48;98473.31;4989212;28;20049;-61
2023/09/30 01:24:30;;;;;;;4.95;3.75;;;17.20;82.60;;;18.98;58.51;98469.75;5019928;28;20056;-61
2023/09/30 01:26:58;;;;;;;4.80;2.83;;;17.20;82.60;;;18.90;58.79;98470.72;5019875;28;20512;-61
2023/09/30 01:29:26;;;;;;;5.47;3.20;;;17.10;83.00;;;18.84;58.82;98482.28;5023201;28;20501;-61
2023/09/30 01:31:54;;;;;;;6.20;3.67;;;17.00;83.30;;;18.76;58.82;98485.09;4989530;28;20052;-61
2023/09/30 01:34:22;;;;;;;6.75;3.45;;;17.00;83.50;;;18.70;59.03;98490.22;5019537;28;20409;-61
2023/09/30 01:36:50;;;;;;;4.47;2.80;;;17.00;83.80;;;18.67;59.26;98497.88;5018600;28;20042;-61
2023/09/30 01:39:18;;;;;;;7.07;3.67;;;16.90;84.00;;;18.69;59.19;98495.84;5005286;28;20045;-61
2023/09/30 01:41:46;;;;;;;6.15;3.63;;;17.00;83.80;;;18.64;59.28;98488.31;5013101;28;20057;-61
2023/09/30 01:44:14;;;;;;;4.75;3.80;;;17.00;83.60;;;18.65;59.25;98489.13;5001796;28;20072;-61
2023/09/30 01:46:41;;;;;;;4.50;3.20;;;16.90;83.20;;;18.59;59.33;98488.06;5019379;28;20045;-61
2023/09/30 01:49:09;;;;;;;5.80;3.67;;;16.90;83.60;;;18.56;59.28;98484.91;5009995;28;20049;-61
2023/09/30 01:51:37;;;;;;;9.10;3.63;;;16.80;83.80;;;18.44;59.61;98487.28;5004835;28;20052;-60
2023/09/30 01:54:05;;;;;;;5.60;3.75;;;16.70;84.10;;;18.49;59.44;98487.53;5003283;28;20516;-61
2023/09/30 01:56:32;;;;;;;6.38;3.90;;;16.80;83.90;;;18.52;59.33;98481.75;5019202;28;20050;-61
2023/09/30 01:59:00;;;;;;;6.95;3.83;;;16.80;83.60;;;18.59;59.33;98490.75;5007234;28;20050;-61
2023/09/30 02:01:28;;;;;;;5.80;3.60;;;16.90;83.20;;;18.61;59.09;98488.72;5013049;28;20049;-61
2023/09/30 02:03:55;;;;;;;6.57;4.25;;;16.90;82.60;;;18.62;59.02;98490.34;5022958;28;20050;-61
2023/09/30 02:06:24;;;;;;;5.57;2.97;;;16.90;82.60;;;18.64;58.96;98485.59;5009998;28;20057;-61
2023/09/30 02:08:51;;;;;;;5.82;4.18;;;16.90;82.30;;;18.63;58.94;98481.25;5019038;28;20049;-61
2023/09/30 02:11:19;;;;;;;5.75;3.78;;;16.90;82.50;;;18.64;58.93;98492.88;5013033;28;20050;-62
2023/09/30 02:13:47;;;;;;;6.25;3.63;;;16.90;82.60;;;18.62;58.84;98495.75;5025290;28;20038;-61
2023/09/30 02:16:14;;;;;;;5.97;3.63;;;16.80;82.30;;;18.60;58.78;98502.38;5005935;28;20049;-61
2023/09/30 02:18:44;;;;;;;8.65;4.13;;;16.80;82.50;;;18.59;58.78;98500.69;5005501;28;20493;-61
2023/09/30 02:21:13;;;;;;;4.97;3.83;;;16.90;82.80;;;18.59;58.86;98495.28;4991925;28;20508;-62
2023/09/30 02:23:40;;;;;;;7.05;3.65;;;16.80;82.70;;;18.57;58.80;98491.97;5025420;28;20515;-61
2023/09/30 02:26:08;;;;;;;6.53;4.00;;;16.80;82.60;;;18.58;59.09;98499.03;5024857;28;20056;-61
2023/09/30 02:28:36;;;;;;;5.68;3.47;;;16.80;82.60;;;18.56;58.79;98496.53;5023177;28;20084;-60
2023/09/30 02:31:04;;;;;;;6.05;3.80;;;16.80;82.60;;;18.57;58.79;98495.50;5024074;28;20049;-61
2023/09/30 02:33:35;;;;;;;8.05;3.83;;;16.80;82.40;;;18.55;58.82;98494.00;5026445;28;20037;-61
2023/09/30 02:36:05;;;;;;;6.45;4.22;;;16.80;82.60;;;18.52;58.85;98502.50;5024484;28;20053;-61
2023/09/30 02:38:33;;;;;;;6.15;3.70;;;16.80;82.80;;;18.50;59.04;98497.28;5006575;28;20048;-61
2023/09/30 02:41:02;;;;;;;5.00;3.78;;;16.80;82.70;;;18.51;58.93;98501.66;5023199;28;20053;-61
2023/09/30 02:43:30;;;;;;;5.43;3.92;;;16.80;82.70;;;18.53;58.95;98501.47;5016167;28;20050;-61
2023/09/30 02:45:57;;;;;;;6.55;4.00;;;16.80;82.30;;;18.47;58.95;98494.97;5024234;28;20061;-61
2023/09/30 02:48:25;;;;;;;4.95;3.78;;;16.80;82.30;;;18.39;59.30;98500.50;5022555;28;20033;-61
2023/09/30 02:50:55;;;;;;;6.40;4.10;;;16.70;83.00;;;18.42;59.27;98494.72;5008742;28;20050;-61
2023/09/30 02:53:22;;;;;;;7.18;3.83;;;16.70;82.70;;;18.41;59.14;98487.66;5025450;28;20049;-61
2023/09/30 02:55:55;;;;;;;7.93;4.28;;;16.70;82.60;;;18.38;59.35;98494.28;5007891;28;20038;-60
2023/09/30 02:58:24;;;;;;;4.40;2.78;;;16.70;82.60;;;18.35;59.16;98489.25;5005664;28;20053;-61
2023/09/30 03:00:52;;;;;;;5.10;3.17;;;16.70;82.40;;;18.38;59.14;98501.50;5022739;28;20524;-61
2023/09/30 03:03:20;;;;;;;6.07;3.60;;;16.70;82.40;;;18.35;59.17;98500.03;5006932;28;20058;-61
2023/09/30 03:05:49;;;;;;;5.35;3.25;;;16.70;82.30;;;18.28;59.24;98505.34;5023438;28;20064;-60
2023/09/30 03:08:17;;;;;;;4.25;2.80;;;16.70;82.80;;;18.18;59.68;98512.06;5023488;28;20053;-61
2023/09/30 03:10:45;;;;;;;4.55;2.78;;;16.60;83.50;;;18.21;59.57;98517.09;5005138;28;20046;-60
2023/09/30 03:13:13;;;;;;;5.68;2.95;;;16.50;83.70;;;18.25;59.65;98516.50;5023671;28;20046;-61
2023/09/30 03:15:41;;;;;;;5.22;2.83;;;16.60;83.30;;;18.26;59.72;98517.34;5025089;28;20497;-61
2023/09/30 03:18:09;;;;;;;6.93;3.75;;;16.60;83.60;;;18.25;59.55;98521.06;5007407;28;20041;-61
2023/09/30 03:20:40;;;;;;;4.68;3.35;;;16.60;83.50;;;18.29;59.57;98522.34;5022058;28;20053;-61
2023/09/30 03:23:08;;;;;;;7.78;3.63;;;16.70;83.50;;;18.28;59.59;98513.44;5022155;28;20520;-60
2023/09/30 03:25:36;;;;;;;6.03;3.58;;;16.60;83.50;;;18.32;59.60;98507.66;5024999;28;20038;-61
2023/09/30 03:28:06;;;;;;;5.78;2.88;;;16.60;83.50;;;18.33;59.40;98518.25;5025478;28;20129;-62
2023/09/30 03:30:34;;;;;;;5.78;3.33;;;16.70;83.40;;;18.35;59.56;98515.38;5014424;28;20410;-61
2023/09/30 03:33:04;;;;;;;5.15;3.15;;;16.70;83.10;;;18.38;59.54;98510.44;5021841;28;20045;-61
2023/09/30 03:35:32;;;;;;;5.78;3.25;;;16.70;82.90;;;18.41;59.42;98504.66;4995028;28;20034;-61
2023/09/30 03:38:01;;;;;;;4.60;3.20;;;16.70;82.90;;;18.39;59.31;98508.56;5021515;28;20057;-60
2023/09/30 03:40:33;;;;;;;4.72;3.72;;;16.70;83.00;;;18.41;59.23;98506.53;5025126;28;20041;-61
2023/09/30 03:43:01;;;;;;;6.22;3.90;;;16.70;82.60;;;18.36;59.13;98504.41;5025343;28;20049;-61
2023/09/30 03:45:29;;;;;;;6.60;3.53;;;16.70;82.70;;;18.35;59.33;98508.13;5022024;28;20050;-61
2023/09/30 03:47:57;;;;;;;6.88;3.85;;;16.70;82.90;;;18.38;59.39;98505.06;5004724;28;20042;-61
2023/09/30 03:50:25;;;;;;;7.50;3.63;;;16.70;82.90;;;18.41;59.23;98493.88;5024054;28;20042;-61
2023/09/30 03:53:00;;;;;;;7.00;3.97;;;16.70;82.80;;;18.44;59.17;98498.91;5024773;28;20033;-60
2023/09/30 03:55:29;;;;;;;7.50;4.03;;;16.70;82.70;;;18.45;59.09;98499.72;5005409;28;20042;-61
2023/09/30 03:57:57;;;;;;;6.22;3.67;;;16.70;82.60;;;18.45;59.16;98494.31;5004334;28;20046;-61
2023/09/30 04:00:25;;;;;;;5.68;3.28;;;16.70;82.80;;;18.45;59.11;98503.25;5006508;28;20054;-61
2023/09/30 04:02:58;;;;;;;5.63;3.05;;;16.70;82.80;;;18.48;59.02;98499.34;5006582;28;20140;-61
2023/09/30 04:05:29;;;;;;;7.10;3.63;;;16.70;82.60;;;18.48;58.93;98502.88;5020187;28;20053;-61
2023/09/30 04:07:56;;;;;;;4.95;3.25;;;16.70;82.30;;;18.46;58.99;98509.50;5021138;28;20049;-61
2023/09/30 04:10:25;;;;;;;6.45;3.22;;;16.70;82.60;;;18.45;59.15;98515.91;5023389;28;20049;-61
2023/09/30 04:12:52;;;;;;;5.15;3.58;;;16.70;82.50;;;18.45;58.93;98518.59;5024712;28;20038;-61
2023/09/30 04:15:20;;;;;;;7.75;3.50;;;16.70;82.60;;;18.44;59.01;98512.38;5005579;28;20420;-61
2023/09/30 04:17:53;;;;;;;5.65;3.22;;;16.70;82.60;;;18.41;58.83;98509.22;5021082;28;20481;-61
2023/09/30 04:20:23;;;;;;;7.45;3.90;;;16.60;82.40;;;18.38;58.99;98502.34;5022963;28;20407;-60
2023/09/30 04:22:55;;;;;;;4.57;3.53;;;16.60;82.40;;;18.39;59.01;98509.41;5024576;28;20524;-60
2023/09/30 04:25:26;;;;;;;6.35;3.67;;;16.60;82.50;;;18.40;58.90;98510.25;5022401;28;20056;-61
2023/09/30 04:27:55;;;;;;;7.00;4.03;;;16.60;82.60;;;18.39;58.90;98511.28;5021092;28;20080;-61
2023/09/30 04:30:23;;;;;;;7.20;3.90;;;16.60;82.50;;;18.39;58.93;98519.34;5022642;28;20421;-61
2023/09/30 04:32:51;;;;;;;5.72;3.30;;;16.60;82.40;;;18.38;58.83;98526.63;5014066;28;20052;-61
2023/09/30 04:35:18;;;;;;;5.07;3.28;;;16.60;82.20;;;18.34;58.76;98527.16;5022277;28;20045;-61
2023/09/30 04:37:46;;;;;;;5.38;3.25;;;16.60;82.20;;;18.32;58.82;98534.59;4971606;28;20058;-61
2023/09/30 04:40:22;;;;;;;7.05;4.20;;;16.60;82.60;;;18.27;58.93;98541.41;5020700;28;20046;-61
2023/09/30 04:42:50;;;;;;;5.63;3.65;;;16.50;82.60;;;18.23;58.94;98547.38;5023713;28;20527;-61
2023/09/30 04:45:20;;;;;;;6.80;4.43;;;16.50;82.90;;;18.19;59.04;98538.00;5023023;28;20045;-61
2023/09/30 04:47:49;;;;;;;7.18;3.63;;;16.40;83.20;;;18.14;59.16;98530.47;5002595;28;20057;-61
2023/09/30 04:50:17;;;;;;;5.55;3.03;;;16.40;83.30;;;18.11;59.21;98538.94;5021005;28;20053;-61
2023/09/30 04:52:45;;;;;;;6.95;4.00;;;16.30;83.50;;;18.07;59.28;98548.41;5023825;28;20030;-60
2023/09/30 04:55:16;;;;;;;6.00;4.03;;;16.30;83.70;;;18.07;59.34;98548.41;5024066;28;20045;-61
2023/09/30 04:57:48;;;;;;;6.07;3.63;;;16.30;83.70;;;18.08;59.50;98550.06;5002712;28;20042;-61
2023/09/30 05:00:25;;;;;;;7.78;4.30;;;16.30;83.40;;;18.06;59.37;98554.81;5003406;28;20053;-60
2023/09/30 05:02:56;;;;;;;8.23;4.13;;;16.30;83.40;;;18.02;59.38;98554.34;5007503;28;20420;-61
2023/09/30 05:05:24;;;;;;;7.10;3.45;;;16.20;83.60;;;18.03;59.47;98552.47;5004875;28;20037;-61
2023/09/30 05:07:52;;;;;;;5.50;3.78;;;16.30;83.80;;;18.04;59.38;98557.69;4991370;28;20049;-61
2023/09/30 05:10:19;;;;;;;7.75;4.10;;;16.30;83.70;;;18.01;59.41;98558.09;5022445;28;20049;-61
2023/09/30 05:12:47;;;;;;;7.22;4.25;;;16.30;83.90;;;17.99;59.41;98568.22;5002667;28;20065;-61
2023/09/30 05:15:16;;;;;;;4.70;3.03;;;16.20;84.10;;;17.99;59.41;98570.91;5019971;28;20421;-61
2023/09/30 05:17:45;;;;;;;8.65;4.18;;;16.20;84.10;;;17.97;59.36;98554.09;5012519;28;20075;-62
2023/09/30 05:20:17;;;;;;;7.57;4.35;;;16.20;84.30;;;17.95;59.43;98550.75;5005940;28;20052;-61
2023/09/30 05:22:46;;;;;;;6.07;3.65;;;16.10;84.10;;;17.85;59.48;98551.00;4995236;28;20050;-61
2023/09/30 05:25:18;;;;;;;6.53;4.20;;;16.10;84.80;;;17.83;59.60;98549.50;5019829;28;20057;-61
2023/09/30 05:27:49;;;;;;;4.70;3.85;;;16.00;84.80;;;17.81;59.60;98554.22;5012295;28;20050;-61
2023/09/30 05:30:19;;;;;;;6.78;3.90;;;16.00;84.80;;;17.77;59.67;98545.69;5019875;28;20427;-61
2023/09/30 05:32:47;;;;;;;8.93;5.40;;;16.00;84.70;;;17.79;59.59;98537.44;5022825;28;20049;-61
2023/09/30 05:35:16;;;;;;;5.82;4.03;;;16.00;84.40;;;17.80;59.72;98544.50;5005543;28;20046;-62
2023/09/30 05:37:45;;;;;;;7.35;4.13;;;16.00;84.10;;;17.80;59.78;98547.19;4994530;28;20517;-61
2023/09/30 05:40:21;;;;;;;7.07;5.25;;;16.00;84.20;;;17.80;59.57;98544.50;5019649;28;20050;-61
2023/09/30 05:42:55;;;;;;;7.97;4.32;;;16.00;84.30;;;17.78;59.67;98552.75;5011868;28;20041;-61
2023/09/30 05:45:23;;;;;;;6.30;4.57;;;16.00;84.50;;;17.77;59.60;98550.25;5021233;28;20053;-61
2023/09/30 05:47:52;;;;;;;9.88;5.07;;;16.00;84.50;;;17.78;59.58;98555.44;5002330;28;20041;-60
2023/09/30 05:50:24;;;;;;;10.82;4.78;;;16.00;84.50;;;17.76;59.75;98570.09;5019902;28;20041;-59
2023/09/30 05:52:55;;;;;;;9.52;6.25;;;15.90;84.80;;;17.73;59.63;98571.31;5022947;28;20042;-59
2023/09/30 05:55:25;;;;;;;7.38;5.20;;;15.90;85.10;;;17.70;59.72;98566.31;5022114;28;20048;-60
2023/09/30 05:57:54;;;;;;;8.48;4.93;;;15.80;85.20;;;17.68;59.76;98560.25;5019831;28;20496;-59
2023/09/30 06:00:30;;;;;;;6.18;4.00;;;15.80;85.10;;;17.66;59.73;98551.53;5019866;28;20050;-59
2023/09/30 06:02:58;;;;;;;4.57;3.67;;;15.80;85.20;;;17.64;59.71;98557.13;5022542;28;20049;-59
2023/09/30 06:05:31;;;;;;;8.48;4.00;;;15.80;85.20;;;17.64;59.74;98567.03;5020927;28;20053;-59
2023/09/30 06:08:03;;;;;;;8.50;5.07;;;15.80;85.10;;;17.60;59.82;98589.97;5019300;28;20046;-59
2023/09/30 06:10:31;;;;;;;7.95;5.28;;;15.70;85.80;;;17.52;60.04;98599.81;5003423;28;20415;-59
2023/09/30 06:12:59;;;;;;;13.15;4.88;;;15.70;86.20;;;17.46;60.33;98597.81;5022069;28;20053;-59
2023/09/30 06:15:28;;;;;;;7.72;4.57;;;15.60;86.60;;;17.47;60.32;98601.38;5021185;28;20056;-59
2023/09/30 06:17:56;;;;;;;10.00;4.97;;;15.70;86.80;;;17.46;60.41;98608.59;5019006;28;20049;-59
2023/09/30 06:20:26;;;;;;;7.35;4.47;;;15.70;86.70;;;17.49;60.47;98602.03;5019501;28;20060;-60
2023/09/30 06:22:55;;;;;;;7.18;4.68;;;15.80;86.30;;;17.54;60.49;98602.28;5022450;28;20409;-59
2023/09/30 06:25:27;;;;;;;9.02;5.07;;;15.80;85.80;;;17.52;60.42;98605.19;5021959;28;20041;-59
2023/09/30 06:27:55;;;;;;;9.50;4.88;;;15.80;85.90;;;17.54;60.47;98604.16;5019036;28;20425;-59
2023/09/30 06:30:29;;;;;;;5.30;4.18;;;15.80;86.00;;;17.57;60.54;98591.16;5005928;28;20045;-60
2023/09/30 06:33:00;;;;;;;8.15;4.25;;;15.80;86.10;;;17.62;60.43;98602.22;5022132;28;20052;-60
2023/09/30 06:35:37;;;;;;;12.40;6.22;;;15.90;86.00;;;17.63;60.39;98601.19;5003510;28;20513;-60
2023/09/30 06:38:06;;;;;;;10.00;4.55;;;15.90;85.80;;;17.67;60.50;98598.97;5014196;28;20049;-60
2023/09/30 06:40:34;;;;;;;10.25;4.65;;;15.90;85.80;;;17.65;60.52;98609.09;5020543;28;20267;-60
2023/09/30 06:43:06;;;;;;;8.65;5.07;;;15.90;86.00;;;17.68;60.41;98614.09;5004535;28;20050;-60
2023/09/30 06:45:39;;;;;;;6.93;4.68;;;15.90;86.00;;;17.66;60.65;98610.75;5025979;28;20045;-59
2023/09/30 06:48:07;;;;;;;6.72;4.53;;;15.90;86.00;;;17.65;60.53;98612.63;5004785;28;20052;-59
2023/09/30 06:50:35;;;;;;;9.18;5.38;;;15.90;85.80;;;17.66;60.45;98621.53;5002693;28;20067;-60
2023/09/30 06:53:03;;;;;;;13.48;5.88;;;15.90;85.90;;;17.62;60.60;98617.53;5007095;28;20057;-59
2023/09/30 06:55:31;;;;;;;5.43;4.82;;;16.00;86.00;;;17.62;60.67;98620.22;5010878;28;20050;-60
2023/09/30 06:57:59;;;;;;;6.57;4.35;;;15.90;86.10;;;17.68;60.74;98614.09;5032401;28;20064;-61
2023/09/30 07:00:26;;;;;;;8.05;5.55;;;16.00;85.90;;;17.71;60.79;98627.22;5025190;28;20060;-60
2023/09/30 07:02:54;;;;;;;9.55;6.45;;;16.10;85.70;;;17.76;60.65;98621.25;5022394;28;20081;-60
2023/09/30 07:05:22;;;;;;;10.50;5.85;;;16.10;85.70;;;17.80;60.64;98619.91;5022169;28;20052;-59
2023/09/30 07:07:51;;;;;;;8.88;5.03;;;16.10;85.50;;;17.83;60.65;98608.75;5021863;28;20045;-59
2023/09/30 07:10:18;;;;;;;7.93;5.53;;;16.20;85.20;;;17.84;60.49;98613.16;5021824;28;20049;-59
2023/09/30 07:12:46;;;;;;;10.30;6.10;;;16.20;84.90;;;17.84;60.49;98613.16;5024769;28;20049;-59
2023/09/30 07:15:14;;;;;;;10.63;5.68;;;16.20;84.90;;;17.85;60.60;98612.13;5025338;28;20414;-60
2023/09/30 07:17:43;;;;;;;11.02;5.55;;;16.20;84.90;;;17.83;60.57;98623.03;5022959;28;20041;-59
2023/09/30 07:20:12;;;;;;;13.18;6.68;;;16.20;85.00;;;17.82;60.69;98634.03;5022033;28;20117;-59
2023/09/30 07:22:41;;;;;;;8.95;6.55;;;16.10;85.50;;;17.77;60.74;98633.72;5023623;28;20049;-59
2023/09/30 07:25:11;;;;;;;13.70;7.38;;;16.10;85.50;;;17.81;60.92;98648.50;5025136;28;20224;-59
2023/09/30 07:27:39;;;;;;;11.38;5.68;;;16.20;85.00;;;17.84;60.77;98654.38;5023263;28;20493;-59
2023/09/30 07:30:07;;;;;;;10.18;6.10;;;16.30;85.20;;;17.81;60.95;98649.31;5021849;28;20042;-59
2023/09/30 07:32:35;;;;;;;11.68;6.93;;;16.20;85.10;;;17.79;61.04;98643.28;5022536;28;20483;-59
2023/09/30 07:35:03;;;;;;;8.13;5.75;;;16.20;85.90;;;17.79;60.86;98631.69;5023570;28;20041;-59
2023/09/30 07:37:30;;;;;;;8.82;5.70;;;16.20;85.20;;;17.81;61.03;98640.41;5024429;28;20045;-60
2023/09/30 07:39:58;;;;;;;10.15;5.93;;;16.20;85.40;;;17.85;61.03;98647.13;5021770;28;20072;-59
2023/09/30 07:42:26;;;;;;;7.32;5.28;;;16.30;85.30;;;17.88;60.80;98653.00;5020998;28;20053;-59
2023/09/30 07:44:54;;;;;;;8.07;5.82;;;16.30;84.60;;;17.96;60.84;98670.13;5024962;28;20424;-59
2023/09/30 07:47:21;;;;;;;8.38;5.32;;;16.40;84.30;;;17.94;60.50;98662.22;5024606;28;20057;-59
2023/09/30 07:49:50;;;;;;;10.50;7.15;;;16.40;83.40;;;17.93;60.74;98670.47;5022030;28;20046;-59
2023/09/30 07:52:17;;;;;;;8.90;6.53;;;16.40;84.20;;;17.92;60.89;98680.41;5021422;28;20532;-58
2023/09/30 07:54:45;;;;;;;9.38;5.20;;;16.40;84.50;;;17.94;60.59;98672.97;5023259;28;20046;-59
2023/09/30 07:57:12;;;;;;;9.43;5.75;;;16.40;83.60;;;17.98;60.48;98674.28;5024535;28;20054;-58
2023/09/30 07:59:40;;;;;;;7.40;5.10;;;16.50;84.00;;;18.03;60.59;98671.88;5023187;28;20056;-57
2023/09/30 08:02:08;;;;;;;11.45;5.05;;;16.50;83.80;;;18.12;60.40;98667.25;5021259;28;20060;-58
2023/09/30 08:04:36;;;;;;;9.60;5.28;;;16.60;83.00;;;18.17;60.07;98664.00;5021746;28;20046;-57
2023/09/30 08:07:04;;;;;;;11.95;5.68;;;16.70;82.20;;;18.14;60.05;98651.72;5006727;28;20053;-58
2023/09/30 08:09:31;;;;;;;10.55;5.10;;;16.60;82.60;;;18.20;59.83;98655.53;5024523;28;20052;-58
2023/09/30 08:11:59;;;;;;;8.98;4.50;;;16.70;82.30;;;18.25;59.88;98647.75;5003008;28;20053;-58
2023/09/30 08:14:27;;;;;;;7.82;4.38;;;16.80;81.80;;;18.30;59.46;98656.13;4995442;28;20057;-58
2023/09/30 08:16:54;;;;;;;5.13;3.53;;;16.80;80.50;;;18.27;58.93;98656.47;5023357;28;20141;-58
2023/09/30 08:19:22;;;;;;;7.53;3.47;;;16.70;79.40;;;18.29;58.74;98651.72;5024395;28;20049;-58
2023/09/30 08:21:50;;;;;;;6.63;4.20;;;16.80;79.60;;;18.33;58.76;98662.97;5021563;28;20049;-55
2023/09/30 08:24:18;;;;;;;8.77;5.57;;;16.80;78.80;;;18.35;58.84;98659.06;5020936;28;20046;-57
2023/09/30 08:26:45;;;;;;;10.70;5.25;;;16.90;79.80;;;18.39;58.93;98656.84;5022830;28;20493;-58
2023/09/30 08:29:13;;;;;;;8.15;5.28;;;16.90;79.80;;;18.45;58.90;98666.88;5024914;28;20046;-58
2023/09/30 08:31:40;;;;;;;10.05;4.80;;;17.00;79.70;;;18.46;58.52;98660.47;5004959;28;20049;-58
2023/09/30 08:34:08;;;;;;;9.20;4.85;;;17.00;78.50;;;18.48;58.62;98658.41;5020730;28;20048;-58
2023/09/30 08:36:36;;;;;;;8.75;4.22;;;17.00;78.80;;;18.50;58.49;98654.50;5002837;28;20496;-58
2023/09/30 08:39:04;;;;;;;7.03;3.92;;;17.00;78.60;;;18.55;58.24;98634.22;5023377;28;20075;-58
2023/09/30 08:41:33;;;;;;;7.10;4.47;;;17.10;78.40;;;18.61;58.22;98636.16;5023356;28;20041;-58
2023/09/30 08:44:04;;;;;;;9.88;5.20;;;17.20;78.00;;;18.67;57.83;98640.81;5012889;28;20045;-57
2023/09/30 08:46:34;;;;;;;9.45;4.95;;;17.30;77.20;;;18.72;57.57;98656.44;5020129;28;20071;-61
2023/09/30 08:49:05;;;;;;;6.40;4.15;;;17.30;76.40;;;18.79;57.56;98657.34;5012546;28;20520;-59
2023/09/30 08:51:35;;;;;;;6.18;4.38;;;17.40;76.40;;;18.85;57.48;98656.63;5020738;28;20049;-58
2023/09/30 08:54:03;;;;;;;5.63;4.13;;;17.50;76.20;;;18.92;57.41;98652.16;4992905;28;20045;-58
2023/09/30 08:56:35;;;;;;;10.95;4.68;;;17.60;75.80;;;18.99;57.34;98647.66;5003346;28;20042;-58
2023/09/30 08:59:03;;;;;;;8.35;4.78;;;17.60;75.50;;;19.06;57.13;98645.03;5013132;28;20037;-58
2023/09/30 09:01:31;;;;;;;9.88;4.72;;;17.70;75.30;;;19.12;56.86;98648.84;5020695;28;20053;-58
2023/09/30 09:04:00;;;;;;;6.07;4.05;;;17.70;75.00;;;19.16;56.84;98647.41;5005937;28;20050;-58
2023/09/30 09:06:28;;;;;;;5.60;4.05;;;17.70;75.40;;;19.16;57.03;98653.66;5022967;28;20416;-58
2023/09/30 09:09:19;;;;;;;9.07;4.47;;;17.80;75.30;;;19.24;57.15;98653.50;5020756;28;20049;-58
2023/09/30 09:11:47;;;;;;;8.98;5.50;;;18.00;74.70;;;19.35;56.91;98668.38;5021477;28;20064;-58
2023/09/30 09:14:15;;;;;;;8.15;4.10;;;18.00;74.70;;;19.38;56.74;98676.06;5022891;28;20046;-58
2023/09/30 09:16:55;;;;;;;10.18;5.03;;;18.10;74.50;;;19.43;56.38;98676.34;5022154;28;20068;-59
2023/09/30 09:19:23;;;;;;;9.30;4.30;;;18.10;74.00;;;19.49;56.53;98666.63;5002525;28;20042;-59
2023/09/30 09:21:59;;;;;;;12.13;4.65;;;18.20;74.30;;;19.55;56.46;98665.84;5021321;28;20052;-59
2023/09/30 09:24:42;;;;;;;7.97;4.75;;;18.30;73.70;;;19.60;56.12;98665.25;5022159;28;20397;-57
2023/09/30 09:27:12;;;;;;;10.57;4.68;;;18.30;73.40;;;19.60;55.55;98662.56;4995740;28;20049;-59
2023/09/30 09:29:42;;;;;;;11.70;4.57;;;18.20;72.70;;;19.53;55.42;98667.09;5019985;28;20046;-58
2023/09/30 09:32:14;;;;;;;7.97;5.07;;;18.00;73.30;;;19.50;55.69;98654.78;5004694;28;20064;-58
2023/09/30 09:34:44;;;;;;;8.23;4.80;;;18.00;73.70;;;19.45;55.58;98654.56;5022580;28;20048;-58
2023/09/30 09:37:20;;;;;;;14.73;3.78;;;17.90;73.70;;;19.47;55.59;98647.09;5019319;28;20042;-59
2023/09/30 09:39:56;;;;;;;7.15;4.07;;;18.00;73.90;;;19.52;55.94;98641.91;5001283;28;20046;-57
2023/09/30 09:42:30;;;;;;;8.05;4.13;;;18.10;73.60;;;19.55;55.43;98644.25;5022839;28;20068;-58
2023/09/30 09:45:05;;;;;;;5.32;3.45;;;18.10;73.10;;;19.51;55.29;98642.97;5019852;28;20041;-59
2023/09/30 09:47:33;;;;;;;5.75;4.13;;;18.10;73.20;;;19.50;55.51;98643.16;5018978;28;20581;-59
2023/09/30 09:50:05;;;;;;;7.25;4.15;;;18.10;73.20;;;19.46;55.26;98650.81;5022279;28;20497;-58
2023/09/30 09:52:34;;;;;;;6.32;3.90;;;18.10;72.00;;;19.46;55.54;98645.41;5022834;28;20041;-58
2023/09/30 09:55:03;;;;;;;10.43;5.30;;;18.10;72.70;;;19.46;55.43;98648.09;5019351;28;20057;-59
2023/09/30 09:57:31;;;;;;;11.13;4.32;;;18.10;72.70;;;19.49;55.53;98642.34;5019151;28;20033;-59
2023/09/30 10:00:00;;;;;;;9.63;4.20;;;18.10;72.90;;;19.56;55.58;98651.34;5004319;28;20042;-58
2023/09/30 10:02:29;;;;;;;11.00;5.05;;;18.30;72.90;;;19.58;55.21;98646.56;5022701;28;20042;-59
2023/09/30 10:04:57;;;;;;;7.60;3.60;;;18.30;72.20;;;19.59;55.02;98648.22;5020302;28;20053;-58
2023/09/30 10:07:53;;;;;;;8.70;4.07;;;18.30;71.40;;;19.63;54.80;98646.81;5001371;28;20050;-58
2023/09/30 10:10:24;;;;;;;4.97;3.28;;;18.40;71.30;;;19.65;54.42;98633.94;5012805;28;20045;-58
2023/09/30 10:12:52;;;;;;;5.93;3.30;;;18.40;70.30;;;19.68;53.83;98628.16;5020347;28;20073;-58
2023/09/30 10:15:37;;;;;;;5.50;3.70;;;18.40;69.40;;;19.75;53.99;98625.53;5022385;28;20045;-59
2023/09/30 10:18:07;;;;;;;6.80;3.70;;;18.50;67.40;;;19.81;53.86;98618.50;5019624;28;20105;-59
2023/09/30 10:20:47;;;;;;;6.80;3.63;;;18.50;69.50;;;19.84;53.57;98618.94;5019117;28;20417;-58
2023/09/30 10:23:27;;;;;;;6.30;3.80;;;18.60;69.10;;;19.86;53.07;98622.28;5006270;28;20056;-58
2023/09/30 10:26:19;;;;;;;7.13;4.38;;;18.60;66.10;;;19.90;53.21;98625.44;5003322;28;20053;-57
2023/09/30 10:28:51;;;;;;;9.20;3.40;;;18.60;66.80;;;19.95;52.82;98627.53;5002540;28;20041;-58